createdAt,value
2017-03-25T00:00:48.917Z,7.70
2017-03-25T00:01:54.581Z,7.70
2017-03-25T00:03:00.057Z,7.70
2017-03-25T00:04:05.041Z,7.70
2017-03-25T00:05:11.472Z,7.80
2017-03-25T00:06:16.277Z,7.70
2017-03-25T00:07:22.024Z,7.70
2017-03-25T00:08:27.440Z,7.70
2017-03-25T00:09:33.852Z,7.60
2017-03-25T00:10:40.637Z,7.60
2017-03-25T00:11:46.245Z,7.60
2017-03-25T00:12:52.084Z,7.60
2017-03-25T00:13:57.875Z,7.50
2017-03-25T00:15:02.844Z,7.40
2017-03-25T00:16:08.417Z,7.60
2017-03-25T00:17:14.824Z,7.60
2017-03-25T00:18:19.657Z,7.50
2017-03-25T00:19:26.011Z,7.60
2017-03-25T00:20:31.528Z,7.70
2017-03-25T00:21:37.259Z,7.60
2017-03-25T00:22:42.122Z,7.60
2017-03-25T00:23:48.422Z,7.60
2017-03-25T00:24:53.409Z,7.50
2017-03-25T00:25:59.833Z,7.50
2017-03-25T00:27:04.821Z,7.50
2017-03-25T00:28:10.276Z,7.40
2017-03-25T00:29:16.732Z,7.50
2017-03-25T00:30:22.444Z,7.50
2017-03-25T00:31:27.925Z,7.50
2017-03-25T00:32:33.588Z,7.50
2017-03-25T00:33:38.589Z,7.40
2017-03-25T00:34:44.825Z,7.40
2017-03-25T00:35:49.785Z,7.40
2017-03-25T00:36:56.028Z,7.40
2017-03-25T00:38:01.698Z,7.40
2017-03-25T00:39:06.783Z,7.30
2017-03-25T00:40:12.388Z,7.40
2017-03-25T00:41:18.010Z,7.40
2017-03-25T00:42:22.849Z,7.40
2017-03-25T00:43:28.584Z,7.40
2017-03-25T00:44:34.072Z,7.30
2017-03-25T00:45:40.421Z,7.20
2017-03-25T00:46:45.336Z,7.20
2017-03-25T00:47:50.045Z,7.20
2017-03-25T00:48:55.716Z,7.30
2017-03-25T00:50:01.433Z,7.30
2017-03-25T00:51:07.776Z,7.40
2017-03-25T00:52:13.545Z,7.40
2017-03-25T00:53:19.200Z,7.40
2017-03-25T00:54:24.942Z,7.40
2017-03-25T00:55:30.896Z,7.50
2017-03-25T00:56:35.804Z,7.40
2017-03-25T00:57:41.465Z,7.50
2017-03-25T00:58:46.139Z,7.50
2017-03-25T00:59:51.720Z,7.50
2017-03-25T01:00:57.381Z,7.50
2017-03-25T01:02:03.063Z,7.40
2017-03-25T01:03:09.432Z,7.40
2017-03-25T01:04:14.364Z,7.40
2017-03-25T01:05:19.244Z,7.40
2017-03-25T01:06:24.821Z,7.40
2017-03-25T01:07:36.261Z,7.30
2017-03-25T01:08:41.197Z,7.30
2017-03-25T01:09:46.752Z,7.20
2017-03-25T01:10:52.469Z,7.20
2017-03-25T01:11:57.940Z,7.10
2017-03-25T01:13:03.444Z,7.10
2017-03-25T01:14:08.324Z,7.00
2017-03-25T01:15:13.931Z,7.00
2017-03-25T01:16:19.753Z,7.00
2017-03-25T01:17:25.129Z,6.90
2017-03-25T01:18:30.716Z,6.90
2017-03-25T01:19:36.235Z,7.00
2017-03-25T01:20:41.241Z,6.90
2017-03-25T01:21:46.936Z,6.90
2017-03-25T01:22:52.496Z,6.90
2017-03-25T01:23:57.201Z,7.00
2017-03-25T01:25:03.720Z,7.10
2017-03-25T01:26:09.470Z,7.20
2017-03-25T01:27:14.426Z,7.10
2017-03-25T01:28:20.016Z,7.20
2017-03-25T01:29:25.756Z,7.20
2017-03-25T01:30:30.469Z,7.20
2017-03-25T01:31:36.864Z,7.20
2017-03-25T01:32:42.465Z,6.90
2017-03-25T01:33:47.300Z,6.90
2017-03-25T01:34:52.813Z,6.80
2017-03-25T01:35:58.325Z,6.80
2017-03-25T01:37:03.195Z,6.70
2017-03-25T01:38:10.620Z,6.80
2017-03-25T01:39:15.536Z,6.80
2017-03-25T01:40:21.008Z,6.80
2017-03-25T01:41:25.748Z,6.80
2017-03-25T01:42:31.244Z,6.90
2017-03-25T01:43:37.028Z,6.90
2017-03-25T01:44:41.876Z,6.80
2017-03-25T01:45:48.216Z,6.90
2017-03-25T01:46:53.097Z,6.80
2017-03-25T01:47:57.992Z,6.80
2017-03-25T01:49:04.213Z,6.70
2017-03-25T01:50:10.060Z,6.70
2017-03-25T01:51:15.572Z,6.70
2017-03-25T01:52:21.137Z,6.70
2017-03-25T01:53:26.109Z,6.60
2017-03-25T01:54:32.544Z,6.60
2017-03-25T01:55:38.256Z,6.60
2017-03-25T01:56:42.909Z,6.60
2017-03-25T01:57:47.572Z,6.60
2017-03-25T01:58:54.016Z,6.60
2017-03-25T01:59:59.048Z,6.60
2017-03-25T02:01:05.325Z,6.70
2017-03-25T02:02:10.220Z,6.60
2017-03-25T02:03:16.559Z,6.60
2017-03-25T02:04:22.356Z,6.60
2017-03-25T02:05:27.876Z,6.60
2017-03-25T02:06:33.108Z,6.50
2017-03-25T02:07:39.283Z,6.60
2017-03-25T02:08:45.013Z,6.60
2017-03-25T02:09:49.904Z,6.60
2017-03-25T02:10:55.559Z,6.50
2017-03-25T02:12:01.873Z,6.30
2017-03-25T02:13:06.846Z,6.30
2017-03-25T02:14:12.504Z,6.40
2017-03-25T02:15:18.757Z,6.40
2017-03-25T02:16:24.531Z,6.50
2017-03-25T02:17:29.312Z,6.40
2017-03-25T02:18:34.960Z,6.60
2017-03-25T02:19:41.352Z,6.60
2017-03-25T02:20:46.340Z,6.60
2017-03-25T02:21:51.872Z,6.60
2017-03-25T02:22:56.663Z,6.60
2017-03-25T02:24:02.360Z,6.60
2017-03-25T02:25:08.096Z,6.50
2017-03-25T02:26:13.765Z,6.50
2017-03-25T02:27:19.452Z,6.50
2017-03-25T02:28:25.116Z,6.50
2017-03-25T02:29:30.697Z,6.60
2017-03-25T02:30:36.100Z,6.50
2017-03-25T02:31:40.885Z,6.50
2017-03-25T02:32:46.513Z,6.50
2017-03-25T02:33:52.109Z,6.50
2017-03-25T02:34:57.744Z,6.40
2017-03-25T02:36:02.654Z,6.30
2017-03-25T02:37:08.165Z,6.40
2017-03-25T02:38:14.837Z,6.40
2017-03-25T02:39:20.413Z,6.40
2017-03-25T02:40:25.973Z,6.40
2017-03-25T02:41:30.909Z,6.40
2017-03-25T02:42:36.556Z,6.40
2017-03-25T02:43:42.281Z,6.40
2017-03-25T02:44:47.680Z,6.40
2017-03-25T02:45:53.305Z,6.20
2017-03-25T02:46:58.440Z,6.20
2017-03-25T02:48:03.223Z,6.20
2017-03-25T02:49:08.848Z,6.20
2017-03-25T02:50:14.516Z,6.20
2017-03-25T02:51:20.825Z,6.10
2017-03-25T02:52:26.743Z,6.20
2017-03-25T02:53:31.924Z,6.10
2017-03-25T02:54:38.416Z,6.10
2017-03-25T02:55:43.119Z,6.10
2017-03-25T02:56:48.733Z,6.20
2017-03-25T02:57:55.054Z,6.20
2017-03-25T02:58:59.841Z,6.10
2017-03-25T03:00:05.415Z,6.20
2017-03-25T03:01:11.120Z,6.20
2017-03-25T03:02:16.852Z,6.20
2017-03-25T03:03:22.001Z,6.20
2017-03-25T03:04:27.657Z,6.30
2017-03-25T03:05:32.428Z,6.20
2017-03-25T03:06:38.824Z,6.30
2017-03-25T03:07:44.461Z,6.20
2017-03-25T03:08:49.342Z,6.20
2017-03-25T03:09:54.881Z,6.20
2017-03-25T03:11:02.348Z,6.30
2017-03-25T03:12:07.205Z,6.20
2017-03-25T03:13:13.489Z,6.10
2017-03-25T03:14:19.361Z,6.00
2017-03-25T03:15:24.210Z,6.00
2017-03-25T03:16:28.937Z,6.10
2017-03-25T03:17:35.331Z,6.10
2017-03-25T03:18:40.221Z,6.10
2017-03-25T03:19:46.647Z,6.10
2017-03-25T03:20:52.176Z,6.10
2017-03-25T03:21:57.845Z,6.20
2017-03-25T03:23:02.849Z,6.10
2017-03-25T03:24:09.166Z,6.10
2017-03-25T03:25:14.717Z,6.10
2017-03-25T03:26:19.482Z,6.00
2017-03-25T03:27:25.965Z,6.20
2017-03-25T03:28:30.725Z,6.10
2017-03-25T03:29:37.012Z,6.20
2017-03-25T03:30:42.896Z,6.20
2017-03-25T03:31:48.448Z,6.20
2017-03-25T03:32:53.411Z,6.10
2017-03-25T03:33:59.774Z,6.20
2017-03-25T03:35:04.901Z,6.10
2017-03-25T03:36:10.457Z,6.20
2017-03-25T03:37:16.188Z,6.20
2017-03-25T03:38:23.531Z,6.20
2017-03-25T03:39:28.397Z,6.10
2017-03-25T03:40:34.789Z,6.20
2017-03-25T03:41:40.462Z,6.20
2017-03-25T03:42:46.183Z,6.30
2017-03-25T03:43:51.182Z,6.20
2017-03-25T03:44:56.665Z,6.30
2017-03-25T03:46:02.330Z,6.20
2017-03-25T03:47:08.709Z,6.30
2017-03-25T03:48:14.469Z,6.20
2017-03-25T03:49:19.386Z,6.10
2017-03-25T03:50:25.756Z,6.00
2017-03-25T03:51:31.314Z,5.90
2017-03-25T03:52:36.197Z,5.90
2017-03-25T03:53:41.770Z,5.70
2017-03-25T03:54:47.311Z,5.70
2017-03-25T03:55:52.901Z,5.70
2017-03-25T03:56:57.936Z,5.60
2017-03-25T03:58:03.485Z,5.60
2017-03-25T03:59:09.260Z,5.60
2017-03-25T04:00:21.508Z,5.60
2017-03-25T04:01:26.884Z,5.50
2017-03-25T04:02:32.584Z,5.60
2017-03-25T04:03:39.249Z,5.50
2017-03-25T04:04:45.688Z,5.60
2017-03-25T04:05:51.326Z,5.50
2017-03-25T04:06:57.142Z,5.60
2017-03-25T04:08:02.696Z,5.50
2017-03-25T04:09:08.389Z,5.60
2017-03-25T04:10:13.224Z,5.50
2017-03-25T04:11:18.921Z,5.50
2017-03-25T04:12:25.279Z,5.60
2017-03-25T04:13:29.990Z,5.50
2017-03-25T04:14:36.429Z,5.60
2017-03-25T04:15:42.149Z,5.60
2017-03-25T04:16:47.984Z,5.50
2017-03-25T04:17:53.570Z,5.50
2017-03-25T04:18:58.389Z,5.40
2017-03-25T04:20:04.140Z,5.50
2017-03-25T04:21:10.466Z,5.60
2017-03-25T04:22:15.308Z,5.60
2017-03-25T04:23:20.816Z,5.70
2017-03-25T04:24:26.253Z,5.80
2017-03-25T04:25:31.250Z,5.80
2017-03-25T04:26:36.821Z,5.80
2017-03-25T04:27:42.526Z,5.80
2017-03-25T04:28:48.738Z,5.70
2017-03-25T04:29:54.456Z,5.70
2017-03-25T04:31:00.070Z,5.70
2017-03-25T04:32:05.058Z,5.60
2017-03-25T04:33:11.461Z,5.80
2017-03-25T04:34:16.280Z,5.70
2017-03-25T04:35:22.677Z,5.70
2017-03-25T04:36:27.704Z,5.60
2017-03-25T04:37:34.136Z,5.90
2017-03-25T04:38:41.712Z,5.80
2017-03-25T04:39:46.613Z,5.80
2017-03-25T04:40:52.080Z,5.80
2017-03-25T04:41:57.669Z,5.80
2017-03-25T04:43:03.355Z,5.90
2017-03-25T04:44:09.203Z,5.80
2017-03-25T04:45:14.746Z,5.80
2017-03-25T04:46:19.622Z,5.80
2017-03-25T04:47:26.013Z,5.80
2017-03-25T04:48:31.591Z,5.80
2017-03-25T04:49:36.397Z,5.70
2017-03-25T04:50:41.157Z,5.80
2017-03-25T04:51:47.293Z,5.90
2017-03-25T04:52:52.231Z,5.80
2017-03-25T04:53:57.735Z,5.90
2017-03-25T04:55:03.429Z,5.80
2017-03-25T04:56:08.229Z,5.70
2017-03-25T04:57:13.965Z,5.80
2017-03-25T04:58:18.637Z,5.80
2017-03-25T04:59:24.352Z,5.80
2017-03-25T05:00:30.029Z,5.80
2017-03-25T05:01:34.745Z,5.80
2017-03-25T05:02:41.137Z,5.90
2017-03-25T05:03:46.751Z,5.90
2017-03-25T05:04:52.445Z,5.80
2017-03-25T05:05:57.269Z,5.70
2017-03-25T05:07:02.707Z,5.80
2017-03-25T05:08:07.412Z,5.80
2017-03-25T05:09:13.781Z,5.70
2017-03-25T05:10:18.700Z,5.70
2017-03-25T05:11:24.355Z,5.70
2017-03-25T05:12:30.690Z,5.70
2017-03-25T05:13:36.225Z,5.70
2017-03-25T05:14:41.809Z,5.70
2017-03-25T05:15:46.616Z,5.60
2017-03-25T05:16:52.294Z,5.70
2017-03-25T05:17:58.577Z,5.70
2017-03-25T05:19:03.391Z,5.60
2017-03-25T05:20:09.054Z,5.70
2017-03-25T05:21:14.700Z,5.80
2017-03-25T05:22:21.109Z,5.80
2017-03-25T05:23:25.853Z,5.70
2017-03-25T05:24:30.560Z,5.80
2017-03-25T05:25:36.896Z,5.80
2017-03-25T05:26:41.600Z,5.70
2017-03-25T05:27:46.474Z,5.60
2017-03-25T05:28:52.055Z,5.60
2017-03-25T05:29:58.494Z,5.60
2017-03-25T05:31:03.533Z,5.50
2017-03-25T05:32:09.232Z,5.60
2017-03-25T05:33:14.987Z,5.70
2017-03-25T05:34:21.317Z,5.70
2017-03-25T05:35:27.040Z,5.60
2017-03-25T05:36:32.008Z,5.60
2017-03-25T05:37:37.536Z,5.50
2017-03-25T05:38:44.907Z,5.60
2017-03-25T05:39:49.713Z,5.50
2017-03-25T05:40:55.321Z,5.80
2017-03-25T05:42:01.641Z,6.00
2017-03-25T05:43:07.328Z,6.10
2017-03-25T05:44:12.418Z,6.00
2017-03-25T05:45:17.920Z,6.00
2017-03-25T05:46:23.305Z,6.00
2017-03-25T05:47:28.164Z,5.80
2017-03-25T05:48:33.582Z,5.70
2017-03-25T05:49:40.028Z,5.80
2017-03-25T05:50:45.611Z,5.90
2017-03-25T05:51:51.361Z,5.80
2017-03-25T05:52:57.581Z,5.80
2017-03-25T05:54:03.637Z,5.80
2017-03-25T05:55:08.633Z,5.70
2017-03-25T05:56:14.209Z,5.90
2017-03-25T05:57:20.484Z,6.00
2017-03-25T05:58:25.388Z,5.90
2017-03-25T05:59:31.761Z,6.30
2017-03-25T06:00:36.828Z,6.20
2017-03-25T06:01:42.424Z,6.40
2017-03-25T06:02:48.009Z,6.20
2017-03-25T06:03:53.573Z,6.20
2017-03-25T06:05:00.025Z,6.20
2017-03-25T06:06:05.592Z,6.30
2017-03-25T06:07:10.445Z,6.30
2017-03-25T06:08:16.017Z,6.40
2017-03-25T06:09:22.382Z,6.60
2017-03-25T06:10:27.382Z,6.60
2017-03-25T06:11:33.852Z,7.00
2017-03-25T06:12:38.617Z,6.90
2017-03-25T06:13:44.314Z,7.00
2017-03-25T06:14:49.880Z,7.10
2017-03-25T06:15:56.218Z,7.10
2017-03-25T06:17:01.944Z,7.00
2017-03-25T06:18:06.748Z,6.90
2017-03-25T06:19:12.322Z,6.90
2017-03-25T06:20:18.844Z,6.90
2017-03-25T06:21:24.481Z,6.80
2017-03-25T06:22:29.405Z,6.80
2017-03-25T06:23:35.035Z,6.90
2017-03-25T06:24:40.657Z,7.20
2017-03-25T06:25:46.448Z,7.30
2017-03-25T06:26:51.245Z,7.30
2017-03-25T06:27:57.524Z,7.20
2017-03-25T06:29:03.257Z,7.30
2017-03-25T06:30:07.997Z,7.30
2017-03-25T06:31:12.765Z,7.40
2017-03-25T06:32:18.332Z,7.50
2017-03-25T06:33:23.865Z,7.50
2017-03-25T06:34:29.494Z,7.60
2017-03-25T06:35:35.861Z,7.20
2017-03-25T06:36:41.493Z,7.20
2017-03-25T06:37:47.148Z,7.40
2017-03-25T06:38:53.645Z,7.60
2017-03-25T06:39:58.377Z,7.50
2017-03-25T06:41:03.924Z,7.50
2017-03-25T06:42:08.649Z,7.40
2017-03-25T06:43:13.359Z,7.60
2017-03-25T06:44:19.917Z,7.50
2017-03-25T06:45:25.476Z,7.60
2017-03-25T06:46:31.077Z,7.70
2017-03-25T06:47:36.621Z,7.70
2017-03-25T06:48:41.581Z,7.70
2017-03-25T06:49:48.054Z,7.80
2017-03-25T06:50:52.905Z,7.80
2017-03-25T06:51:58.481Z,7.60
2017-03-25T06:53:04.999Z,7.20
2017-03-25T06:54:10.493Z,7.40
2017-03-25T06:55:16.165Z,7.30
2017-03-25T06:56:21.877Z,7.20
2017-03-25T06:57:26.613Z,7.20
2017-03-25T06:58:31.325Z,7.20
2017-03-25T06:59:36.065Z,7.40
2017-03-25T07:00:40.965Z,7.60
2017-03-25T07:01:47.361Z,7.90
2017-03-25T07:02:52.944Z,8.00
2017-03-25T07:03:58.666Z,7.60
2017-03-25T07:05:04.433Z,7.60
2017-03-25T07:06:09.398Z,7.50
2017-03-25T07:07:14.945Z,7.80
2017-03-25T07:08:19.713Z,7.70
2017-03-25T07:09:25.969Z,7.90
2017-03-25T07:10:30.896Z,7.90
2017-03-25T07:11:36.472Z,7.70
2017-03-25T07:12:41.306Z,7.60
2017-03-25T07:13:47.672Z,7.70
2017-03-25T07:14:52.613Z,7.60
2017-03-25T07:15:58.225Z,7.70
2017-03-25T07:17:03.972Z,7.70
2017-03-25T07:18:10.230Z,7.70
2017-03-25T07:19:15.161Z,7.70
2017-03-25T07:20:20.572Z,7.70
2017-03-25T07:21:26.069Z,7.60
2017-03-25T07:22:31.693Z,7.90
2017-03-25T07:23:36.494Z,7.80
2017-03-25T07:24:42.874Z,7.70
2017-03-25T07:25:47.892Z,7.60
2017-03-25T07:26:54.209Z,7.70
2017-03-25T07:27:59.132Z,7.70
2017-03-25T07:29:05.544Z,8.20
2017-03-25T07:30:11.305Z,8.10
2017-03-25T07:31:17.007Z,8.00
2017-03-25T07:32:22.421Z,8.20
2017-03-25T07:33:28.125Z,8.10
2017-03-25T07:34:33.671Z,8.10
2017-03-25T07:35:40.001Z,8.30
2017-03-25T07:36:45.654Z,8.50
2017-03-25T07:37:51.249Z,8.50
2017-03-25T07:38:56.105Z,8.50
2017-03-25T07:40:02.525Z,8.50
2017-03-25T07:41:08.134Z,8.60
2017-03-25T07:42:13.756Z,8.70
2017-03-25T07:43:19.433Z,8.70
2017-03-25T07:44:25.143Z,8.80
2017-03-25T07:45:31.584Z,8.80
2017-03-25T07:46:37.331Z,9.00
2017-03-25T07:47:42.792Z,8.80
2017-03-25T07:48:48.329Z,8.80
2017-03-25T07:49:53.978Z,8.90
2017-03-25T07:50:59.762Z,9.00
2017-03-25T07:52:05.325Z,9.00
2017-03-25T07:53:10.837Z,9.00
2017-03-25T07:54:16.332Z,8.90
2017-03-25T07:55:21.492Z,8.90
2017-03-25T07:56:28.065Z,8.90
2017-03-25T07:57:33.635Z,8.80
2017-03-25T07:58:38.430Z,8.80
2017-03-25T07:59:44.821Z,9.10
2017-03-25T08:00:50.552Z,9.00
2017-03-25T08:01:56.248Z,9.30
2017-03-25T08:03:01.250Z,9.30
2017-03-25T08:04:07.704Z,9.50
2017-03-25T08:05:12.561Z,9.40
2017-03-25T08:06:19.047Z,9.30
2017-03-25T08:07:25.417Z,9.20
2017-03-25T08:08:30.204Z,9.20
2017-03-25T08:09:36.633Z,9.30
2017-03-25T08:10:41.597Z,9.20
2017-03-25T08:11:49.171Z,9.30
2017-03-25T08:12:54.712Z,9.30
2017-03-25T08:14:00.359Z,9.40
2017-03-25T08:15:06.137Z,9.50
2017-03-25T08:16:10.949Z,9.40
2017-03-25T08:17:17.296Z,9.60
2017-03-25T08:18:23.297Z,9.80
2017-03-25T08:19:29.485Z,9.90
2017-03-25T08:20:34.193Z,9.80
2017-03-25T08:21:39.714Z,9.70
2017-03-25T08:22:44.857Z,9.60
2017-03-25T08:23:50.444Z,9.90
2017-03-25T08:24:56.861Z,9.90
2017-03-25T08:26:01.704Z,9.90
2017-03-25T08:27:07.257Z,10.10
2017-03-25T08:28:12.891Z,10.00
2017-03-25T08:29:17.708Z,9.90
2017-03-25T08:30:22.582Z,10.00
2017-03-25T08:31:28.149Z,10.00
2017-03-25T08:32:34.561Z,10.10
2017-03-25T08:33:39.460Z,10.10
2017-03-25T08:34:45.903Z,10.20
2017-03-25T08:35:51.607Z,10.10
2017-03-25T08:36:56.701Z,10.10
2017-03-25T08:38:02.100Z,10.20
2017-03-25T08:39:07.840Z,10.20
2017-03-25T08:40:14.165Z,10.30
2017-03-25T08:41:18.893Z,10.20
2017-03-25T08:42:24.440Z,10.20
2017-03-25T08:43:30.037Z,10.40
2017-03-25T08:44:35.029Z,10.30
2017-03-25T08:45:39.816Z,10.50
2017-03-25T08:46:45.316Z,10.50
2017-03-25T08:47:50.924Z,10.50
2017-03-25T08:48:55.576Z,10.60
2017-03-25T08:50:01.876Z,10.50
2017-03-25T08:51:07.541Z,10.60
2017-03-25T08:52:13.154Z,10.60
2017-03-25T08:53:18.858Z,10.60
2017-03-25T08:54:23.630Z,10.60
2017-03-25T08:55:30.045Z,10.70
2017-03-25T08:56:34.889Z,10.70
2017-03-25T08:57:40.452Z,10.80
2017-03-25T08:58:46.149Z,10.70
2017-03-25T08:59:51.709Z,10.60
2017-03-25T09:00:56.492Z,10.60
2017-03-25T09:02:02.977Z,10.80
2017-03-25T09:03:07.790Z,10.70
2017-03-25T09:04:12.621Z,10.70
2017-03-25T09:05:19.057Z,10.80
2017-03-25T09:06:23.861Z,10.80
2017-03-25T09:07:30.184Z,10.80
2017-03-25T09:08:35.041Z,10.80
2017-03-25T09:09:40.697Z,10.90
2017-03-25T09:10:45.501Z,10.80
2017-03-25T09:11:51.980Z,11.10
2017-03-25T09:12:57.584Z,11.10
2017-03-25T09:14:02.574Z,11.00
2017-03-25T09:15:08.296Z,11.10
2017-03-25T09:16:14.633Z,11.20
2017-03-25T09:17:19.573Z,11.20
2017-03-25T09:18:25.166Z,11.20
2017-03-25T09:19:29.820Z,11.20
2017-03-25T09:20:35.386Z,11.30
2017-03-25T09:21:40.221Z,11.30
2017-03-25T09:22:46.597Z,11.20
2017-03-25T09:23:52.174Z,11.20
2017-03-25T09:24:57.677Z,11.20
2017-03-25T09:26:03.350Z,11.30
2017-03-25T09:27:09.000Z,11.20
2017-03-25T09:28:13.878Z,11.20
2017-03-25T09:29:19.302Z,11.20
2017-03-25T09:30:25.520Z,11.40
2017-03-25T09:31:31.576Z,11.40
2017-03-25T09:32:36.439Z,11.30
2017-03-25T09:33:41.311Z,11.40
2017-03-25T09:34:46.900Z,11.30
2017-03-25T09:35:52.292Z,11.50
2017-03-25T09:36:57.861Z,11.50
2017-03-25T09:38:03.657Z,11.50
2017-03-25T09:39:08.517Z,11.40
2017-03-25T09:40:14.700Z,11.50
2017-03-25T09:41:19.589Z,11.40
2017-03-25T09:42:33.835Z,11.50
2017-03-25T09:43:39.242Z,11.60
2017-03-25T09:44:44.857Z,11.70
2017-03-25T09:45:49.624Z,11.60
2017-03-25T09:46:55.960Z,11.70
2017-03-25T09:48:01.678Z,11.70
2017-03-25T09:49:07.298Z,11.80
2017-03-25T09:50:12.250Z,11.70
2017-03-25T09:51:18.041Z,11.80
2017-03-25T09:52:24.448Z,11.80
2017-03-25T09:53:29.953Z,11.80
2017-03-25T09:54:35.557Z,11.80
2017-03-25T09:55:40.433Z,11.70
2017-03-25T09:56:46.792Z,11.80
2017-03-25T09:57:51.717Z,11.80
2017-03-25T09:58:57.309Z,11.70
2017-03-25T10:00:03.697Z,11.80
2017-03-25T10:01:09.437Z,11.80
2017-03-25T10:02:15.145Z,11.70
2017-03-25T10:03:20.813Z,11.80
2017-03-25T10:04:27.110Z,11.90
2017-03-25T10:05:32.896Z,12.00
2017-03-25T10:06:38.545Z,12.00
2017-03-25T10:07:44.081Z,12.10
2017-03-25T10:08:49.017Z,12.10
2017-03-25T10:09:55.544Z,12.20
2017-03-25T10:11:01.281Z,12.30
2017-03-25T10:12:06.972Z,12.30
2017-03-25T10:13:11.774Z,12.30
2017-03-25T10:14:18.104Z,12.30
2017-03-25T10:15:23.868Z,12.30
2017-03-25T10:16:29.491Z,12.40
2017-03-25T10:17:35.253Z,12.40
2017-03-25T10:18:40.726Z,12.40
2017-03-25T10:19:46.273Z,12.40
2017-03-25T10:20:51.125Z,12.40
2017-03-25T10:21:56.731Z,12.50
2017-03-25T10:23:02.455Z,12.60
2017-03-25T10:24:07.193Z,12.50
2017-03-25T10:25:13.564Z,12.60
2017-03-25T10:26:19.168Z,12.60
2017-03-25T10:27:24.865Z,12.70
2017-03-25T10:28:30.645Z,12.60
2017-03-25T10:29:36.169Z,12.60
2017-03-25T10:30:41.877Z,12.60
2017-03-25T10:31:46.855Z,12.60
2017-03-25T10:32:53.197Z,12.60
2017-03-25T10:33:59.025Z,12.70
2017-03-25T10:35:03.878Z,12.70
2017-03-25T10:36:09.387Z,12.70
2017-03-25T10:37:15.731Z,12.80
2017-03-25T10:38:20.443Z,12.70
2017-03-25T10:39:25.971Z,12.90
2017-03-25T10:40:31.684Z,12.90
2017-03-25T10:41:37.533Z,12.90
2017-03-25T10:42:42.337Z,12.80
2017-03-25T10:43:48.580Z,12.90
2017-03-25T10:44:54.294Z,13.00
2017-03-25T10:45:59.937Z,13.00
2017-03-25T10:47:04.723Z,13.00
2017-03-25T10:48:11.181Z,13.00
2017-03-25T10:49:16.920Z,13.10
2017-03-25T10:50:21.789Z,13.10
2017-03-25T10:51:28.185Z,13.30
2017-03-25T10:52:33.752Z,13.30
2017-03-25T10:53:39.309Z,13.30
2017-03-25T10:54:44.947Z,13.30
2017-03-25T10:55:50.670Z,13.40
2017-03-25T10:56:56.293Z,13.40
2017-03-25T10:58:01.965Z,13.40
2017-03-25T10:59:07.405Z,13.40
2017-03-25T11:00:12.285Z,13.40
2017-03-25T11:01:17.860Z,13.40
2017-03-25T11:02:23.351Z,13.40
2017-03-25T11:03:28.841Z,13.40
2017-03-25T11:04:34.342Z,13.40
2017-03-25T11:05:39.812Z,13.40
2017-03-25T11:06:46.181Z,13.40
2017-03-25T11:07:51.121Z,13.40
2017-03-25T11:08:57.446Z,13.50
2017-03-25T11:10:02.840Z,13.50
2017-03-25T11:11:08.593Z,13.50
2017-03-25T11:12:13.510Z,13.50
2017-03-25T11:13:19.081Z,13.60
2017-03-25T11:14:24.476Z,13.60
2017-03-25T11:15:30.253Z,13.60
2017-03-25T11:16:35.905Z,13.60
2017-03-25T11:17:41.420Z,13.60
2017-03-25T11:18:46.286Z,13.50
2017-03-25T11:19:51.689Z,13.60
2017-03-25T11:20:57.328Z,13.60
2017-03-25T11:22:02.934Z,13.60
2017-03-25T11:23:08.678Z,13.60
2017-03-25T11:24:13.449Z,13.60
2017-03-25T11:25:18.186Z,13.70
2017-03-25T11:26:23.740Z,13.80
2017-03-25T11:27:30.192Z,13.80
2017-03-25T11:28:36.618Z,13.80
2017-03-25T11:29:42.213Z,13.80
2017-03-25T11:30:47.861Z,13.80
2017-03-25T11:31:52.545Z,13.70
2017-03-25T11:32:57.965Z,13.80
2017-03-25T11:34:03.733Z,13.70
2017-03-25T11:35:09.249Z,13.80
2017-03-25T11:36:13.989Z,13.80
2017-03-25T11:37:19.573Z,13.90
2017-03-25T11:38:24.938Z,13.90
2017-03-25T11:39:29.709Z,13.90
2017-03-25T11:40:35.192Z,13.90
2017-03-25T11:41:40.833Z,13.90
2017-03-25T11:42:46.481Z,13.90
2017-03-25T11:43:52.037Z,14.00
2017-03-25T11:44:56.880Z,13.90
2017-03-25T11:46:03.201Z,14.00
2017-03-25T11:47:08.937Z,14.10
2017-03-25T11:48:14.694Z,14.10
2017-03-25T11:49:19.532Z,14.00
2017-03-25T11:50:25.331Z,14.10
2017-03-25T11:51:30.764Z,14.00
2017-03-25T11:52:35.505Z,14.00
2017-03-25T11:53:41.074Z,14.00
2017-03-25T11:54:47.493Z,14.00
2017-03-25T11:55:53.080Z,14.00
2017-03-25T11:56:58.581Z,14.10
2017-03-25T11:58:03.466Z,14.10
2017-03-25T11:59:09.030Z,14.10
2017-03-25T12:00:13.768Z,14.20
2017-03-25T12:01:19.381Z,14.20
2017-03-25T12:02:25.006Z,14.20
2017-03-25T12:03:29.820Z,14.20
2017-03-25T12:04:35.308Z,14.20
2017-03-25T12:05:41.517Z,14.20
2017-03-25T12:06:47.181Z,14.20
2017-03-25T12:07:52.841Z,14.30
2017-03-25T12:08:57.769Z,14.20
2017-03-25T12:10:04.073Z,14.30
2017-03-25T12:11:09.652Z,14.30
2017-03-25T12:12:14.596Z,14.30
2017-03-25T12:13:20.885Z,14.30
2017-03-25T12:14:25.715Z,14.30
2017-03-25T12:15:32.012Z,14.30
2017-03-25T12:16:36.880Z,14.20
2017-03-25T12:17:41.733Z,14.30
2017-03-25T12:18:47.233Z,14.30
2017-03-25T12:19:56.655Z,14.40
2017-03-25T12:21:01.485Z,14.40
2017-03-25T12:22:07.069Z,14.50
2017-03-25T12:23:12.598Z,14.60
2017-03-25T12:24:18.690Z,14.60
2017-03-25T12:25:23.689Z,14.50
2017-03-25T12:26:29.344Z,14.50
2017-03-25T12:27:34.940Z,14.50
2017-03-25T12:28:40.570Z,14.50
2017-03-25T12:29:46.732Z,14.60
2017-03-25T12:30:51.484Z,14.60
2017-03-25T12:31:57.855Z,14.60
2017-03-25T12:33:03.449Z,14.70
2017-03-25T12:34:09.206Z,14.70
2017-03-25T12:35:13.970Z,14.60
2017-03-25T12:36:19.584Z,14.70
2017-03-25T12:37:26.025Z,14.70
2017-03-25T12:38:32.353Z,14.70
2017-03-25T12:39:38.098Z,14.70
2017-03-25T12:40:42.912Z,14.80
2017-03-25T12:41:49.152Z,14.70
2017-03-25T12:42:54.878Z,14.70
2017-03-25T12:44:00.389Z,14.80
2017-03-25T12:45:06.089Z,14.80
2017-03-25T12:46:10.829Z,14.70
2017-03-25T12:47:17.111Z,14.80
2017-03-25T12:48:21.978Z,14.70
2017-03-25T12:49:27.612Z,14.80
2017-03-25T12:50:32.981Z,14.90
2017-03-25T12:51:38.716Z,14.90
2017-03-25T12:52:45.021Z,14.90
2017-03-25T12:53:49.914Z,14.80
2017-03-25T12:54:56.167Z,14.90
2017-03-25T12:56:01.015Z,14.80
2017-03-25T12:57:06.514Z,15.00
2017-03-25T12:58:12.026Z,15.00
2017-03-25T12:59:17.467Z,15.00
2017-03-25T13:00:23.800Z,15.10
2017-03-25T13:01:28.789Z,15.00
2017-03-25T13:02:34.138Z,15.10
2017-03-25T13:03:39.713Z,15.00
2017-03-25T13:04:45.413Z,15.00
2017-03-25T13:05:51.005Z,15.10
2017-03-25T13:06:56.604Z,15.10
2017-03-25T13:08:02.929Z,15.10
2017-03-25T13:09:07.813Z,15.10
2017-03-25T13:10:14.111Z,15.20
2017-03-25T13:11:18.817Z,15.10
2017-03-25T13:12:25.141Z,15.20
2017-03-25T13:13:30.809Z,15.30
2017-03-25T13:14:36.447Z,15.40
2017-03-25T13:15:41.293Z,15.30
2017-03-25T13:16:46.874Z,15.50
2017-03-25T13:17:53.385Z,15.50
2017-03-25T13:18:58.875Z,15.60
2017-03-25T13:20:04.342Z,15.60
2017-03-25T13:21:09.205Z,15.50
2017-03-25T13:22:15.445Z,15.60
2017-03-25T13:23:20.377Z,15.50
2017-03-25T13:24:25.854Z,15.60
2017-03-25T13:25:31.408Z,15.60
2017-03-25T13:26:36.992Z,15.70
2017-03-25T13:27:42.574Z,15.60
2017-03-25T13:28:48.138Z,15.60
2017-03-25T13:29:54.414Z,15.70
2017-03-25T13:31:00.150Z,15.70
2017-03-25T13:32:05.009Z,15.60
2017-03-25T13:33:10.601Z,15.70
2017-03-25T13:34:16.310Z,15.70
2017-03-25T13:35:21.781Z,15.70
2017-03-25T13:36:27.433Z,15.80
2017-03-25T13:37:33.020Z,15.80
2017-03-25T13:38:39.381Z,15.80
2017-03-25T13:39:44.278Z,15.80
2017-03-25T13:40:49.833Z,15.80
2017-03-25T13:41:56.337Z,15.90
2017-03-25T13:43:01.913Z,15.90
2017-03-25T13:44:07.760Z,16.00
2017-03-25T13:45:13.308Z,15.90
2017-03-25T13:46:19.564Z,16.00
2017-03-25T13:47:25.281Z,16.00
2017-03-25T13:48:30.018Z,16.00
2017-03-25T13:49:36.265Z,16.20
2017-03-25T13:50:41.152Z,16.10
2017-03-25T13:51:46.836Z,16.30
2017-03-25T13:52:52.346Z,16.30
2017-03-25T13:53:58.771Z,16.50
2017-03-25T13:55:03.572Z,16.40
2017-03-25T13:56:10.013Z,16.70
2017-03-25T13:57:14.872Z,16.60
2017-03-25T13:58:20.469Z,16.70
2017-03-25T13:59:26.026Z,16.70
2017-03-25T14:00:30.701Z,16.80
2017-03-25T14:01:36.306Z,16.80
2017-03-25T14:02:41.945Z,16.90
2017-03-25T14:03:47.558Z,17.00
2017-03-25T14:04:52.976Z,17.00
2017-03-25T14:05:58.565Z,17.00
2017-03-25T14:07:04.228Z,17.00
2017-03-25T14:08:10.658Z,17.00
2017-03-25T14:09:15.314Z,17.00
2017-03-25T14:10:20.762Z,17.10
2017-03-25T14:11:25.721Z,17.00
2017-03-25T14:12:31.547Z,17.10
2017-03-25T14:13:37.081Z,17.10
2017-03-25T14:14:43.206Z,17.10
2017-03-25T14:15:48.074Z,17.10
2017-03-25T14:16:53.658Z,17.20
2017-03-25T14:17:59.338Z,17.20
2017-03-25T14:19:05.621Z,17.30
2017-03-25T14:20:10.334Z,17.30
2017-03-25T14:21:15.989Z,17.30